Time;durP1;ratioP1;P1;durP2;ratioP2;P2;SDS_P1;SDS_P2;PMS_P1;PMS_P2;Temp;Humidity;BMP_temperature;BMP_pressure;BME280_temperature;BME280_humidity;BME280_pressure;Samples;Min_cycle;Max_cycle;Signal;HPM_P1;HPM_P2
2023/03/20 00:20:35;;;;;;;0.00;0.00;;;;;;;;;;6273774;22;20436;-88
2023/03/20 00:23:01;;;;;;;0.10;0.10;;;10.00;99.90;;;;;;6237370;23;20012;-86
2023/03/20 00:25:27;;;;;;;0.10;0.10;;;9.90;99.90;;;;;;6213908;23;20012;-87
2023/03/20 00:27:52;;;;;;;0.10;0.10;;;9.80;99.90;;;;;;6215084;23;20396;-87
2023/03/20 00:30:21;;;;;;;0.10;0.10;;;9.60;99.90;;;;;;6244282;23;20031;-86
2023/03/20 00:32:47;;;;;;;0.10;0.10;;;9.60;99.90;;;;;;6217795;23;20008;-86
2023/03/20 00:35:23;;;;;;;0.10;0.10;;;9.50;99.90;;;;;;6217147;23;20436;-85
2023/03/20 00:37:49;;;;;;;0.10;0.10;;;9.40;99.90;;;;;;6218673;23;20009;-87
2023/03/20 00:40:15;;;;;;;0.10;0.10;;;9.40;99.90;;;;;;6219319;23;20016;-85
2023/03/20 00:42:43;;;;;;;0.10;0.10;;;9.40;99.90;;;;;;6218789;22;20004;-85
2023/03/20 00:45:15;;;;;;;0.10;0.10;;;9.30;99.90;;;;;;6246022;23;20008;-86
2023/03/20 00:47:41;;;;;;;0.10;0.10;;;9.40;99.90;;;;;;6218433;23;20264;-87
2023/03/20 00:50:15;;;;;;;0.00;0.00;;;9.30;99.90;;;;;;6218810;23;20452;-85
2023/03/20 00:52:41;;;;;;;0.10;0.10;;;9.30;99.90;;;;;;6218760;22;20015;-86
2023/03/20 00:55:07;;;;;;;0.10;0.10;;;9.10;99.90;;;;;;6219380;23;20012;-86
2023/03/20 00:57:44;;;;;;;0.10;0.10;;;9.00;99.90;;;;;;6218962;23;20477;-87
2023/03/20 01:00:24;;;;;;;0.10;0.10;;;9.00;99.90;;;;;;6219117;23;20437;-85
2023/03/20 01:02:53;;;;;;;0.10;0.10;;;8.90;99.90;;;;;;6245272;22;19999;-86
2023/03/20 01:05:19;;;;;;;0.10;0.10;;;8.90;99.90;;;;;;6218677;23;20083;-87
2023/03/20 01:07:45;;;;;;;0.10;0.10;;;8.80;99.90;;;;;;6218621;23;20381;-87
2023/03/20 01:10:11;;;;;;;0.10;0.10;;;8.80;99.90;;;;;;6246214;23;20035;-86
2023/03/20 01:12:41;;;;;;;0.10;0.10;;;8.70;99.90;;;;;;6218817;22;20008;-86
2023/03/20 01:15:24;;;;;;;0.10;0.10;;;8.70;99.90;;;;;;6217848;23;20059;-85
2023/03/20 01:17:50;;;;;;;0.10;0.10;;;8.70;99.90;;;;;;6245875;23;20004;-86
2023/03/20 01:20:25;;;;;;;0.10;0.10;;;8.70;99.90;;;;;;6218684;23;20087;-85
2023/03/20 01:22:51;;;;;;;0.10;0.10;;;8.80;99.90;;;;;;6218623;23;20008;-86
2023/03/20 01:25:17;;;;;;;0.10;0.10;;;8.80;99.90;;;;;;6218605;23;20079;-85
2023/03/20 01:27:48;;;;;;;0.10;0.10;;;8.80;99.90;;;;;;6219179;23;20004;-85
2023/03/20 01:30:23;;;;;;;0.10;0.10;;;8.80;99.90;;;;;;6219013;23;20000;-87
2023/03/20 01:32:49;;;;;;;0.10;0.10;;;8.90;99.90;;;;;;6218641;23;20011;-86
2023/03/20 01:35:17;;;;;;;0.10;0.10;;;8.80;99.90;;;;;;6218295;23;20132;-86
2023/03/20 01:37:43;;;;;;;0.10;0.10;;;8.80;99.90;;;;;;6218325;23;20012;-86
2023/03/20 01:40:38;;;;;;;0.10;0.10;;;8.70;99.90;;;;;;6218389;23;20004;-85
2023/03/20 01:43:11;;;;;;;0.10;0.10;;;8.80;99.90;;;;;;6218276;23;20000;-85
2023/03/20 01:45:43;;;;;;;0.10;0.10;;;8.90;99.90;;;;;;6218407;23;20019;-85
2023/03/20 01:48:15;;;;;;;0.10;0.10;;;8.80;99.90;;;;;;6245473;23;19996;-85
2023/03/20 01:50:40;;;;;;;0.10;0.10;;;8.80;99.90;;;;;;6218484;23;20004;-86
2023/03/20 01:53:38;;;;;;;0.10;0.10;;;8.70;99.90;;;;;;6218282;23;20075;-85
2023/03/20 01:56:04;;;;;;;0.10;0.10;;;8.70;99.90;;;;;;6152796;23;20069;-86
2023/03/20 01:58:36;;;;;;;0.10;0.10;;;8.60;99.90;;;;;;6218625;23;20004;-87
2023/03/20 02:01:03;;;;;;;0.10;0.10;;;8.40;99.90;;;;;;6218601;23;20008;-87
2023/03/20 02:03:28;;;;;;;0.10;0.10;;;8.50;99.90;;;;;;6217850;23;20456;-85
2023/03/20 02:05:55;;;;;;;0.10;0.10;;;8.60;99.90;;;;;;6217774;23;20028;-86
2023/03/20 02:08:30;;;;;;;0.10;0.10;;;8.60;99.90;;;;;;6245246;23;20004;-85
2023/03/20 02:10:58;;;;;;;0.10;0.10;;;8.60;99.90;;;;;;6217954;23;20011;-87
2023/03/20 02:13:26;;;;;;;0.10;0.10;;;8.70;99.90;;;;;;6218426;23;20467;-87
2023/03/20 02:16:00;;;;;;;0.00;0.00;;;8.70;99.90;;;;;;6217577;23;20008;-85
2023/03/20 02:18:25;;;;;;;0.10;0.10;;;8.70;99.90;;;;;;6217796;23;20027;-86
2023/03/20 02:21:10;;;;;;;0.10;0.10;;;8.70;99.90;;;;;;6243905;23;20690;-86
2023/03/20 02:23:53;;;;;;;0.10;0.10;;;8.80;99.90;;;;;;6217964;23;20011;-86
2023/03/20 02:26:24;;;;;;;0.10;0.10;;;8.80;99.90;;;;;;6245091;23;20003;-87
2023/03/20 02:29:12;;;;;;;0.10;0.10;;;9.00;99.90;;;;;;6244545;23;20082;-86
2023/03/20 02:32:15;;;;;;;0.10;0.10;;;9.00;99.90;;;;;;6217648;23;20118;-86
2023/03/20 02:35:19;;;;;;;0.10;0.10;;;8.90;99.90;;;;;;6217862;23;20008;-86
2023/03/20 02:38:14;;;;;;;0.10;0.10;;;9.00;99.90;;;;;;6217648;23;20005;-86
2023/03/20 02:40:54;;;;;;;0.10;0.10;;;9.10;99.90;;;;;;6217892;23;20043;-88
2023/03/20 02:43:43;;;;;;;0.10;0.10;;;9.00;99.90;;;;;;6216632;23;20003;-85
2023/03/20 02:46:25;;;;;;;0.10;0.10;;;9.10;99.90;;;;;;6217626;23;20000;-87
2023/03/20 02:49:08;;;;;;;0.05;0.05;;;9.30;99.90;;;;;;6217417;23;20023;-88
2023/03/20 02:51:45;;;;;;;0.10;0.10;;;9.30;99.90;;;;;;6217615;23;20055;-87
2023/03/20 02:54:44;;;;;;;0.10;0.10;;;9.30;99.90;;;;;;6217602;23;20035;-85
2023/03/20 02:57:19;;;;;;;0.10;0.10;;;9.30;99.90;;;;;;6217823;23;20015;-86
2023/03/20 03:00:21;;;;;;;0.10;0.10;;;9.30;99.90;;;;;;6244334;23;20004;-86
2023/03/20 03:02:58;;;;;;;0.10;0.10;;;9.30;99.90;;;;;;6197065;23;20083;-85
2023/03/20 03:05:30;;;;;;;0.05;0.05;;;9.40;99.90;;;;;;6217621;23;20020;-87
2023/03/20 03:07:59;;;;;;;0.10;0.10;;;9.40;99.90;;;;;;6217670;23;20000;-86
2023/03/20 03:10:29;;;;;;;0.10;0.10;;;9.40;99.90;;;;;;6244871;23;20448;-86
2023/03/20 03:12:57;;;;;;;0.00;0.00;;;9.40;99.90;;;;;;6217742;23;20000;-87
2023/03/20 03:15:33;;;;;;;0.10;0.10;;;9.40;99.90;;;;;;6244244;23;20008;-86
2023/03/20 03:18:01;;;;;;;0.10;0.10;;;9.50;99.90;;;;;;6217555;23;20439;-86
2023/03/20 03:20:32;;;;;;;0.00;0.00;;;9.60;99.90;;;;;;6244509;23;20011;-88
2023/03/20 03:22:59;;;;;;;0.10;0.10;;;9.60;99.90;;;;;;6216617;23;20012;-85
2023/03/20 03:25:28;;;;;;;0.00;0.00;;;9.50;99.90;;;;;;6216705;23;20107;-86
2023/03/20 03:28:06;;;;;;;0.05;0.05;;;9.50;99.90;;;;;;6216620;23;20058;-87
2023/03/20 03:30:35;;;;;;;0.00;0.00;;;9.60;99.90;;;;;;6215630;23;20433;-86
2023/03/20 03:33:11;;;;;;;0.00;0.00;;;9.60;99.90;;;;;;6216464;23;20472;-86
2023/03/20 03:35:38;;;;;;;0.00;0.00;;;9.60;99.90;;;;;;6216048;23;20716;-85
2023/03/20 03:38:21;;;;;;;0.00;0.00;;;9.60;99.90;;;;;;6216427;23;20066;-86
2023/03/20 03:41:25;;;;;;;0.00;0.00;;;9.70;99.90;;;;;;6216699;23;20445;-87
2023/03/20 03:44:07;;;;;;;0.00;0.00;;;9.70;99.90;;;;;;6216911;23;20456;-86
2023/03/20 03:46:47;;;;;;;0.00;0.00;;;9.80;99.90;;;;;;6216213;23;20019;-86
2023/03/20 03:49:14;;;;;;;;;;;9.70;99.90;;;;;;6216997;23;20015;-87
2023/03/20 03:51:44;;;;;;;0.00;0.00;;;9.90;99.90;;;;;;6242936;23;19900;-87
2023/03/20 03:54:23;;;;;;;0.00;0.00;;;9.80;99.90;;;;;;6216408;23;20013;-86
2023/03/20 03:56:50;;;;;;;0.00;0.00;;;9.70;99.90;;;;;;6216787;23;20479;-86
2023/03/20 03:59:34;;;;;;;0.10;0.10;;;9.70;99.90;;;;;;6216269;23;20004;-84
2023/03/20 04:02:02;;;;;;;0.10;0.10;;;9.80;99.90;;;;;;6216757;23;20064;-86
2023/03/20 04:04:30;;;;;;;0.05;0.05;;;9.80;99.90;;;;;;6216520;23;20001;-85
2023/03/20 04:06:56;;;;;;;0.00;0.00;;;9.70;99.90;;;;;;6216851;23;20495;-84
2023/03/20 04:09:22;;;;;;;0.00;0.00;;;9.80;99.90;;;;;;6243773;23;20016;-86
2023/03/20 04:11:50;;;;;;;0.00;0.00;;;9.80;99.90;;;;;;6216597;23;20000;-86
2023/03/20 04:14:16;;;;;;;0.00;0.00;;;9.90;99.90;;;;;;6217667;23;20433;-85
2023/03/20 04:16:42;;;;;;;0.10;0.10;;;9.80;99.90;;;;;;6217875;23;20181;-86
2023/03/20 04:19:07;;;;;;;0.10;0.10;;;9.70;99.90;;;;;;6245081;23;20007;-86
2023/03/20 04:21:33;;;;;;;0.00;0.00;;;9.70;99.90;;;;;;6201773;23;1016556;-87
2023/03/20 04:23:58;;;;;;;0.00;0.00;;;9.70;99.90;;;;;;6220283;23;20039;-86
2023/03/20 04:26:24;;;;;;;0.00;0.00;;;9.70;99.90;;;;;;6220425;23;20008;-84
2023/03/20 04:28:50;;;;;;;0.00;0.00;;;9.70;99.90;;;;;;6219689;23;20461;-86
2023/03/20 04:31:16;;;;;;;0.05;0.05;;;9.80;99.90;;;;;;6219637;23;20032;-87
2023/03/20 04:33:42;;;;;;;0.05;0.05;;;9.80;99.90;;;;;;6219386;23;20431;-84
2023/03/20 04:36:08;;;;;;;0.10;0.10;;;9.80;99.90;;;;;;6219466;23;20008;-86
2023/03/20 04:38:34;;;;;;;0.00;0.00;;;9.80;99.90;;;;;;6219025;23;20004;-84
2023/03/20 04:40:59;;;;;;;0.10;0.10;;;9.90;99.90;;;;;;6246798;23;20417;-86
2023/03/20 04:43:25;;;;;;;0.10;0.10;;;9.80;99.90;;;;;;6245850;22;20020;-85
2023/03/20 04:45:51;;;;;;;0.10;0.10;;;9.80;99.90;;;;;;6218579;23;20388;-86
2023/03/20 04:48:16;;;;;;;0.10;0.10;;;9.80;99.90;;;;;;6219477;23;20004;-86
2023/03/20 04:50:45;;;;;;;0.10;0.10;;;9.80;99.90;;;;;;6219312;23;20031;-85
2023/03/20 04:53:11;;;;;;;0.10;0.10;;;9.80;99.90;;;;;;6218884;23;20425;-85
2023/03/20 04:55:36;;;;;;;0.10;0.10;;;9.80;99.90;;;;;;6219285;23;20111;-86
2023/03/20 04:58:02;;;;;;;0.10;0.10;;;9.90;99.90;;;;;;6219262;23;20008;-87
2023/03/20 05:00:27;;;;;;;0.00;0.00;;;9.80;99.90;;;;;;6218259;23;20004;-87
2023/03/20 05:02:53;;;;;;;0.00;0.00;;;9.80;99.90;;;;;;6218927;23;20307;-85
2023/03/20 05:05:18;;;;;;;0.00;0.00;;;9.80;99.90;;;;;;6219112;23;20000;-86
2023/03/20 05:07:44;;;;;;;0.00;0.00;;;9.80;99.90;;;;;;6218846;23;20042;-85
2023/03/20 05:10:10;;;;;;;0.10;0.10;;;9.80;99.90;;;;;;6219043;23;20034;-86
2023/03/20 05:12:35;;;;;;;0.00;0.00;;;9.70;99.90;;;;;;6220372;22;20008;-86
2023/03/20 05:15:01;;;;;;;0.00;0.00;;;9.70;99.90;;;;;;6218099;23;20083;-85
2023/03/20 05:17:26;;;;;;;0.08;0.08;;;9.70;99.90;;;;;;6219268;23;20087;-85
2023/03/20 05:19:52;;;;;;;0.10;0.10;;;9.70;99.90;;;;;;6218853;23;20011;-86
2023/03/20 05:22:17;;;;;;;0.10;0.10;;;9.80;99.90;;;;;;6218794;23;20091;-86
2023/03/20 05:24:43;;;;;;;0.00;0.00;;;9.80;99.90;;;;;;6218564;23;20007;-85
2023/03/20 05:27:09;;;;;;;0.10;0.10;;;9.80;99.90;;;;;;6219186;23;20087;-85
2023/03/20 05:29:34;;;;;;;0.00;0.00;;;9.90;99.90;;;;;;6218808;23;20001;-86
2023/03/20 05:32:00;;;;;;;0.10;0.10;;;9.90;99.90;;;;;;6219214;23;19996;-86
2023/03/20 05:34:26;;;;;;;0.00;0.00;;;9.90;99.90;;;;;;6245534;22;20000;-87
2023/03/20 05:36:52;;;;;;;0.00;0.00;;;9.80;99.90;;;;;;6218441;23;20000;-86
2023/03/20 05:39:18;;;;;;;0.00;0.00;;;9.80;99.90;;;;;;6245622;23;20000;-86
2023/03/20 05:41:43;;;;;;;0.00;0.00;;;9.80;99.90;;;;;;6218414;23;20092;-86
2023/03/20 05:44:09;;;;;;;0.00;0.00;;;9.90;99.90;;;;;;6218328;23;20447;-87
2023/03/20 05:46:34;;;;;;;0.00;0.00;;;9.90;99.90;;;;;;6218322;23;19996;-85
2023/03/20 05:49:00;;;;;;;0.00;0.00;;;9.80;99.90;;;;;;6217561;23;20004;-86
2023/03/20 05:51:26;;;;;;;0.00;0.00;;;9.80;99.90;;;;;;6219268;23;20079;-86
2023/03/20 05:53:51;;;;;;;0.00;0.00;;;9.70;99.90;;;;;;6219528;23;20064;-87
2023/03/20 05:56:17;;;;;;;0.10;0.10;;;9.80;99.90;;;;;;6219630;23;20000;-86
2023/03/20 05:58:42;;;;;;;0.10;0.10;;;9.80;99.90;;;;;;6217991;23;20004;-86
2023/03/20 06:01:08;;;;;;;0.10;0.10;;;9.80;99.90;;;;;;6218734;23;19996;-85
2023/03/20 06:03:33;;;;;;;0.00;0.00;;;9.70;99.90;;;;;;6218264;23;20004;-86
2023/03/20 06:05:59;;;;;;;0.10;0.10;;;9.80;99.90;;;;;;6219526;23;20011;-86
2023/03/20 06:08:24;;;;;;;0.05;0.05;;;9.80;99.90;;;;;;6246235;23;20004;-85
2023/03/20 06:10:51;;;;;;;0.10;0.10;;;9.80;99.90;;;;;;6219552;23;20008;-86
2023/03/20 06:13:16;;;;;;;0.10;0.10;;;9.80;99.90;;;;;;6219108;23;20004;-87
2023/03/20 06:15:42;;;;;;;0.00;0.00;;;9.80;99.90;;;;;;6218662;23;20000;-85
2023/03/20 06:18:07;;;;;;;0.00;0.00;;;9.90;99.90;;;;;;6218281;23;20342;-86
2023/03/20 06:20:33;;;;;;;0.08;0.08;;;9.90;99.90;;;;;;6218707;23;20003;-85
2023/03/20 06:22:58;;;;;;;0.00;0.00;;;9.80;99.90;;;;;;6217861;23;20019;-86
2023/03/20 06:25:24;;;;;;;0.10;0.10;;;9.80;99.90;;;;;;6244761;23;20086;-86
2023/03/20 06:27:50;;;;;;;0.00;0.00;;;9.80;99.90;;;;;;6219044;23;20086;-86
2023/03/20 07:03:49;;;;;;;0.10;0.10;;;;;;;;;;6275228;22;20031;-89
2023/03/20 07:06:16;;;;;;;0.10;0.10;;;;;;;;;;6248278;22;20437;-89
2023/03/20 07:08:42;;;;;;;0.00;0.00;;;10.20;99.90;;;;;;6267584;22;20000;-89
2023/03/20 07:11:08;;;;;;;0.10;0.10;;;10.20;99.90;;;;;;6218395;23;20065;-90
2023/03/20 07:13:34;;;;;;;0.10;0.10;;;10.30;99.90;;;;;;6219670;23;20004;-89
2023/03/20 07:16:01;;;;;;;0.00;0.00;;;10.30;99.90;;;;;;6218303;23;20066;-89
2023/03/20 07:18:27;;;;;;;0.10;0.10;;;;;;;;;;6218241;22;20000;-88
2023/03/20 07:20:56;;;;;;;0.00;0.00;;;10.50;99.90;;;;;;6247418;23;20000;-88
2023/03/20 07:23:22;;;;;;;0.10;0.10;;;10.40;99.90;;;;;;6219442;23;20107;-89
2023/03/20 07:25:48;;;;;;;0.10;0.10;;;;;;;;;;6220648;23;20004;-89
2023/03/20 07:28:14;;;;;;;0.00;0.00;;;10.50;99.90;;;;;;6218888;22;20008;-88
2023/03/20 07:30:40;;;;;;;0.10;0.10;;;10.50;99.90;;;;;;6217618;23;20018;-88
2023/03/20 07:33:06;;;;;;;0.00;0.00;;;10.40;99.90;;;;;;6219058;23;20093;-89
2023/03/20 07:35:32;;;;;;;0.00;0.00;;;;;;;;;;6218148;23;20445;-89
2023/03/20 07:37:57;;;;;;;0.00;0.00;;;10.40;99.90;;;;;;6218320;23;20429;-88
2023/03/20 07:40:23;;;;;;;0.10;0.10;;;10.40;99.90;;;;;;6217796;23;20027;-88
2023/03/20 07:42:49;;;;;;;0.00;0.00;;;10.50;99.90;;;;;;6217962;23;20000;-88
2023/03/20 07:45:17;;;;;;;0.00;0.00;;;10.50;99.90;;;;;;6216747;23;20528;-89
2023/03/20 07:47:43;;;;;;;0.05;0.05;;;10.50;99.90;;;;;;6219465;23;20014;-89
2023/03/20 07:50:09;;;;;;;0.00;0.00;;;10.70;99.90;;;;;;6245611;22;20004;-89
2023/03/20 07:52:35;;;;;;;0.00;0.00;;;10.60;99.90;;;;;;6218811;23;20004;-89
2023/03/20 07:55:00;;;;;;;0.00;0.00;;;10.70;99.90;;;;;;6219673;23;20002;-89
2023/03/20 07:57:26;;;;;;;0.00;0.00;;;;;;;;;;6246158;23;20003;-88
2023/03/20 07:59:52;;;;;;;0.00;0.00;;;10.60;99.90;;;;;;6218234;23;20456;-88
2023/03/20 08:02:17;;;;;;;0.00;0.00;;;10.60;99.90;;;;;;6246395;23;20036;-89
2023/03/20 08:04:44;;;;;;;0.10;0.10;;;10.50;99.90;;;;;;6218634;23;20008;-89
2023/03/20 08:07:10;;;;;;;0.08;0.08;;;10.50;99.90;;;;;;6216729;23;20058;-89
2023/03/20 08:09:35;;;;;;;0.00;0.00;;;10.50;99.90;;;;;;6219133;23;20095;-88
2023/03/20 08:12:01;;;;;;;0.00;0.00;;;10.50;99.90;;;;;;6247566;23;20004;-88
2023/03/20 08:14:26;;;;;;;0.05;0.05;;;10.60;99.90;;;;;;6220565;23;20131;-88
2023/03/20 08:16:52;;;;;;;0.00;0.00;;;10.50;99.90;;;;;;6218986;23;20012;-88
2023/03/20 08:19:18;;;;;;;0.10;0.10;;;10.50;99.90;;;;;;6218412;23;19996;-89
2023/03/20 08:21:43;;;;;;;0.00;0.00;;;10.60;99.90;;;;;;6218457;23;20042;-88
2023/03/20 08:24:09;;;;;;;0.00;0.00;;;10.70;99.90;;;;;;6219553;23;20004;-88
2023/03/20 08:26:35;;;;;;;0.10;0.10;;;10.80;99.90;;;;;;6219485;23;20568;-89
2023/03/20 08:29:01;;;;;;;0.00;0.00;;;;;;;;;;6219017;23;20131;-88
2023/03/20 08:31:26;;;;;;;0.00;0.00;;;10.60;99.90;;;;;;6246425;23;20004;-88
2023/03/20 08:33:52;;;;;;;0.05;0.05;;;10.70;99.90;;;;;;6219877;23;20012;-89
2023/03/20 08:36:20;;;;;;;0.00;0.00;;;10.90;99.90;;;;;;6246529;23;20008;-88
2023/03/20 08:38:48;;;;;;;0.00;0.00;;;10.80;99.90;;;;;;6218418;23;20309;-89
2023/03/20 08:41:13;;;;;;;0.00;0.00;;;10.90;99.90;;;;;;6218488;23;20008;-89
2023/03/20 08:43:39;;;;;;;0.00;0.00;;;11.00;99.90;;;;;;6219033;23;20046;-88
2023/03/20 08:46:04;;;;;;;0.00;0.00;;;11.00;99.90;;;;;;6218727;23;20000;-88
2023/03/20 08:48:30;;;;;;;0.00;0.00;;;11.10;99.90;;;;;;6219300;23;20030;-88
2023/03/20 08:50:56;;;;;;;0.00;0.00;;;11.20;99.90;;;;;;6217625;23;20044;-88
2023/03/20 08:53:21;;;;;;;0.00;0.00;;;11.30;99.90;;;;;;6216998;23;20101;-89
2023/03/20 08:55:48;;;;;;;0.00;0.00;;;11.40;99.90;;;;;;6218131;23;20004;-89
2023/03/20 08:58:14;;;;;;;0.00;0.00;;;15.00;99.90;;;;;;6210684;22;20034;-87
2023/03/20 09:00:41;;;;;;;0.00;0.00;;;11.40;99.90;;;;;;6237401;23;20082;-88
2023/03/20 09:03:07;;;;;;;0.10;0.10;;;;;;;;;;6214726;23;20015;-90
2023/03/20 09:05:35;;;;;;;0.00;0.00;;;11.40;99.90;;;;;;6214561;23;20004;-88
2023/03/20 09:08:01;;;;;;;0.00;0.00;;;11.50;99.90;;;;;;6242105;23;20047;-88
2023/03/20 09:10:26;;;;;;;0.10;0.10;;;11.60;99.90;;;;;;6213440;23;20001;-88
2023/03/20 09:12:52;;;;;;;0.00;0.00;;;11.50;99.90;;;;;;6215537;23;20000;-88
2023/03/20 09:15:18;;;;;;;0.00;0.00;;;;;;;;;;6215686;23;20012;-86
2023/03/20 09:17:44;;;;;;;0.10;0.10;;;11.40;99.90;;;;;;6214738;23;20095;-86
2023/03/20 09:20:10;;;;;;;0.03;0.03;;;11.30;99.90;;;;;;6242386;22;20020;-89
2023/03/20 09:22:35;;;;;;;0.10;0.10;;;11.40;99.90;;;;;;6243164;23;19992;-88
2023/03/20 09:25:01;;;;;;;0.00;0.00;;;11.20;99.90;;;;;;6215719;23;20452;-88
2023/03/20 09:27:26;;;;;;;0.00;0.00;;;11.40;99.90;;;;;;6216678;23;20344;-88
2023/03/20 09:29:52;;;;;;;0.00;0.00;;;11.50;99.90;;;;;;6214579;23;20038;-88
2023/03/20 09:32:18;;;;;;;0.00;0.00;;;11.50;99.90;;;;;;6216477;23;20014;-86
2023/03/20 09:34:43;;;;;;;0.00;0.00;;;11.50;99.90;;;;;;6214541;23;20008;-88
2023/03/20 09:37:09;;;;;;;0.00;0.00;;;;;;;;;;6216031;23;20023;-89
2023/03/20 09:39:35;;;;;;;0.00;0.00;;;;;;;;;;6214633;23;20003;-88
2023/03/20 09:42:17;;;;;;;0.00;0.00;;;12.20;99.90;;;;;;6216018;23;20344;-88
2023/03/20 09:44:56;;;;;;;0.00;0.00;;;12.20;99.90;;;;;;6214914;23;20202;-88
2023/03/20 09:47:30;;;;;;;0.00;0.00;;;12.30;99.90;;;;;;6214755;23;20004;-88
2023/03/20 09:50:24;;;;;;;0.00;0.00;;;12.40;99.90;;;;;;6216142;23;20008;-88
2023/03/20 09:53:10;;;;;;;0.00;0.00;;;12.30;99.90;;;;;;6213519;23;20079;-87
2023/03/20 09:55:38;;;;;;;0.00;0.00;;;12.20;99.90;;;;;;6242913;23;20078;-88
2023/03/20 09:58:31;;;;;;;0.00;0.00;;;12.30;99.90;;;;;;6215379;23;20408;-88
2023/03/20 10:01:00;;;;;;;0.00;0.00;;;12.40;99.90;;;;;;6214391;23;20004;-88
2023/03/20 10:03:37;;;;;;;0.00;0.00;;;11.90;99.90;;;;;;6215843;23;20449;-88
2023/03/20 10:06:11;;;;;;;0.00;0.00;;;12.10;99.90;;;;;;6214949;23;20039;-88
2023/03/20 10:08:38;;;;;;;0.00;0.00;;;12.30;99.90;;;;;;6216473;23;20491;-88
2023/03/20 10:11:18;;;;;;;0.00;0.00;;;12.30;99.90;;;;;;6215425;23;20008;-88
2023/03/20 10:13:44;;;;;;;0.00;0.00;;;12.30;99.90;;;;;;6242903;23;20336;-88
2023/03/20 10:16:16;;;;;;;0.00;0.00;;;12.30;99.90;;;;;;6214800;23;20004;-88
2023/03/20 10:18:56;;;;;;;0.00;0.00;;;12.50;99.90;;;;;;6241066;22;19996;-88
2023/03/20 10:21:25;;;;;;;;;;;12.50;99.90;;;;;;6216611;23;20015;-88
2023/03/20 10:24:04;;;;;;;0.03;0.03;;;12.50;99.90;;;;;;6215993;23;20406;-88
2023/03/20 10:26:33;;;;;;;0.00;0.00;;;12.50;99.90;;;;;;6216855;23;20127;-88
2023/03/20 10:29:05;;;;;;;0.00;0.00;;;12.60;99.90;;;;;;6215832;23;20004;-87
2023/03/20 10:32:03;;;;;;;0.00;0.00;;;12.60;99.90;;;;;;6212665;23;20011;-88
2023/03/20 10:34:49;;;;;;;0.00;0.00;;;12.60;99.90;;;;;;6215743;23;20011;-88
2023/03/20 10:37:20;;;;;;;0.00;0.00;;;12.60;99.90;;;;;;6214826;23;20008;-88
2023/03/20 10:40:20;;;;;;;0.00;0.00;;;12.50;99.90;;;;;;6242875;22;20004;-88
2023/03/20 10:42:47;;;;;;;;;;;12.60;99.90;;;;;;6216459;23;19996;-88
2023/03/20 10:45:45;;;;;;;0.00;0.00;;;12.60;99.90;;;;;;6213984;23;20091;-88
2023/03/20 10:48:30;;;;;;;0.00;0.00;;;12.60;99.90;;;;;;6215441;22;20029;-88
2023/03/20 10:50:58;;;;;;;0.00;0.00;;;12.50;99.90;;;;;;6214724;23;20063;-88
2023/03/20 10:53:32;;;;;;;0.00;0.00;;;12.40;99.90;;;;;;6243477;23;20004;-88
2023/03/20 10:56:10;;;;;;;0.00;0.00;;;12.50;99.90;;;;;;6215428;23;20046;-88
2023/03/20 10:58:40;;;;;;;0.00;0.00;;;12.40;99.90;;;;;;6242657;22;20364;-86
2023/03/20 11:01:06;;;;;;;0.00;0.00;;;12.40;99.90;;;;;;6242742;23;20054;-88
2023/03/20 11:03:35;;;;;;;0.00;0.00;;;12.40;99.90;;;;;;6245589;23;20004;-88
2023/03/20 11:06:17;;;;;;;0.00;0.00;;;12.30;99.90;;;;;;6218163;23;20032;-88
2023/03/20 11:08:51;;;;;;;0.00;0.00;;;12.30;99.90;;;;;;6219854;23;20004;-88
2023/03/20 11:11:32;;;;;;;0.00;0.00;;;12.30;99.90;;;;;;6215029;23;20030;-88
2023/03/20 11:14:14;;;;;;;0.00;0.00;;;12.30;99.90;;;;;;6242940;23;20224;-88
2023/03/20 11:16:40;;;;;;;0.00;0.00;;;12.30;99.90;;;;;;6214900;23;20015;-89
2023/03/20 11:19:07;;;;;;;0.00;0.00;;;12.60;99.90;;;;;;6213966;23;20460;-88
2023/03/20 11:21:35;;;;;;;0.00;0.00;;;12.50;99.90;;;;;;6214628;23;20008;-88
2023/03/20 11:24:03;;;;;;;0.00;0.00;;;12.70;99.90;;;;;;6214108;23;20004;-87
2023/03/20 11:26:36;;;;;;;0.00;0.00;;;14.70;99.90;;;;;;6214097;23;20008;-87
2023/03/20 11:29:06;;;;;;;0.00;0.00;;;12.70;98.50;;;;;;6217848;23;20405;-89
2023/03/20 11:31:37;;;;;;;0.00;0.00;;;12.70;98.60;;;;;;6217864;23;20412;-88
2023/03/20 11:34:03;;;;;;;0.00;0.00;;;;;;;;;;6217661;23;20008;-89
2023/03/20 11:36:32;;;;;;;0.00;0.00;;;12.60;99.90;;;;;;6217194;23;20062;-90
2023/03/20 11:39:05;;;;;;;0.00;0.00;;;12.70;99.80;;;;;;6217255;23;20000;-88
2023/03/20 11:41:31;;;;;;;0.00;0.00;;;;;;;;;;6215878;23;20065;-87
2023/03/20 11:43:56;;;;;;;0.00;0.00;;;12.70;99.80;;;;;;6216513;23;20000;-87
2023/03/20 11:46:23;;;;;;;0.00;0.00;;;12.70;99.50;;;;;;6218115;23;20372;-88
2023/03/20 11:49:17;;;;;;;0.00;0.00;;;12.80;99.90;;;;;;6217192;23;20058;-88
2023/03/20 11:51:43;;;;;;;0.00;0.00;;;12.90;99.90;;;;;;6217458;23;20011;-88
2023/03/20 11:54:21;;;;;;;0.00;0.00;;;13.20;99.90;;;;;;6217822;23;20313;-88
2023/03/20 11:56:59;;;;;;;0.00;0.00;;;13.10;99.10;;;;;;6217923;23;20009;-88
2023/03/20 11:59:30;;;;;;;0.00;0.00;;;13.20;98.90;;;;;;6217499;23;20075;-88
2023/03/20 12:01:57;;;;;;;0.00;0.00;;;13.40;99.80;;;;;;6244147;23;20004;-88
2023/03/20 12:04:36;;;;;;;0.00;0.00;;;13.40;98.50;;;;;;6244317;23;20012;-88
2023/03/20 12:07:05;;;;;;;0.00;0.00;;;13.50;97.70;;;;;;6217246;23;20507;-87
2023/03/20 12:09:51;;;;;;;0.00;0.00;;;13.40;96.60;;;;;;6215826;23;20099;-88
2023/03/20 12:12:41;;;;;;;0.00;0.00;;;13.40;97.20;;;;;;6218240;23;20004;-89
2023/03/20 12:15:16;;;;;;;0.00;0.00;;;13.40;97.00;;;;;;6215306;23;20012;-89
2023/03/20 12:17:51;;;;;;;0.00;0.00;;;13.40;95.80;;;;;;6218586;23;20005;-88
2023/03/20 12:20:35;;;;;;;0.00;0.00;;;13.30;96.30;;;;;;6244693;22;20428;-88
2023/03/20 12:23:35;;;;;;;0.00;0.00;;;13.30;99.20;;;;;;6216935;23;20003;-88
2023/03/20 12:26:23;;;;;;;0.10;0.10;;;13.30;96.30;;;;;;6217617;23;20404;-88
2023/03/20 12:29:27;;;;;;;0.00;0.00;;;13.20;95.60;;;;;;6196731;23;20004;-89
2023/03/20 12:31:56;;;;;;;0.00;0.00;;;13.20;95.40;;;;;;6166896;23;20107;-87
2023/03/20 12:34:38;;;;;;;0.00;0.00;;;13.10;96.50;;;;;;6246850;23;20003;-88
2023/03/20 12:37:09;;;;;;;0.00;0.00;;;13.20;96.40;;;;;;6219245;23;20188;-89
2023/03/20 12:39:41;;;;;;;0.10;0.10;;;13.00;96.30;;;;;;6219648;23;20004;-88
2023/03/20 12:42:25;;;;;;;0.00;0.00;;;13.20;96.70;;;;;;6247190;23;20003;-88
2023/03/20 12:45:17;;;;;;;0.10;0.10;;;13.40;96.60;;;;;;6219045;23;20459;-88
2023/03/20 12:48:10;;;;;;;0.00;0.00;;;13.40;95.70;;;;;;6219491;23;20004;-88
2023/03/20 12:50:39;;;;;;;0.00;0.00;;;13.40;95.20;;;;;;6218121;23;20392;-87
2023/03/20 12:53:20;;;;;;;0.00;0.00;;;13.20;95.60;;;;;;6216222;23;20008;-88
2023/03/20 12:55:54;;;;;;;0.00;0.00;;;13.20;95.70;;;;;;6246839;23;20000;-88
2023/03/20 12:58:42;;;;;;;0.00;0.00;;;13.10;94.10;;;;;;6218165;22;20318;-88
2023/03/20 13:01:17;;;;;;;0.00;0.00;;;13.00;95.50;;;;;;6215116;23;19997;-88
2023/03/20 13:03:51;;;;;;;0.00;0.00;;;12.90;94.50;;;;;;6217836;23;20087;-88
2023/03/20 13:06:20;;;;;;;0.00;0.00;;;12.90;95.00;;;;;;6217372;23;20428;-88
2023/03/20 13:08:49;;;;;;;0.00;0.00;;;13.00;96.50;;;;;;6217930;23;20008;-87
2023/03/20 13:11:47;;;;;;;0.00;0.00;;;12.90;95.80;;;;;;6244265;23;20004;-87
2023/03/20 13:14:23;;;;;;;0.00;0.00;;;13.00;96.90;;;;;;6218377;23;20004;-88
2023/03/20 13:17:18;;;;;;;0.00;0.00;;;13.10;96.80;;;;;;6215433;23;20356;-88
2023/03/20 13:20:10;;;;;;;0.00;0.00;;;13.20;96.60;;;;;;6216416;23;20027;-87
2023/03/20 13:22:50;;;;;;;0.00;0.00;;;13.20;96.60;;;;;;6217947;23;20004;-87
2023/03/20 13:25:26;;;;;;;0.00;0.00;;;13.10;96.20;;;;;;6214372;23;20503;-87
2023/03/20 13:28:03;;;;;;;0.00;0.00;;;12.90;95.30;;;;;;6219107;23;20004;-89
2023/03/20 13:30:55;;;;;;;0.00;0.00;;;12.70;94.90;;;;;;6216537;23;20228;-89
2023/03/20 13:33:48;;;;;;;0.00;0.00;;;12.50;95.10;;;;;;6216499;23;20004;-88
2023/03/20 13:36:44;;;;;;;0.00;0.00;;;12.40;95.90;;;;;;6214545;23;20098;-87
2023/03/20 13:39:20;;;;;;;0.00;0.00;;;12.40;96.80;;;;;;6217547;23;20483;-88
2023/03/20 13:41:47;;;;;;;0.00;0.00;;;12.40;97.00;;;;;;6217943;23;20007;-88
2023/03/20 13:44:18;;;;;;;0.00;0.00;;;12.50;97.30;;;;;;6217616;23;20012;-88
2023/03/20 13:46:49;;;;;;;0.00;0.00;;;12.40;97.10;;;;;;6219217;23;20012;-88
2023/03/20 13:49:33;;;;;;;0.00;0.00;;;12.50;96.00;;;;;;6246767;22;20015;-88
2023/03/20 13:52:19;;;;;;;0.00;0.00;;;12.40;96.20;;;;;;6216817;23;20354;-88
2023/03/20 13:55:14;;;;;;;0.00;0.00;;;12.20;95.90;;;;;;6217358;23;20031;-88
2023/03/20 13:58:06;;;;;;;0.00;0.00;;;12.20;95.40;;;;;;6218012;23;20436;-88
2023/03/20 14:00:53;;;;;;;0.00;0.00;;;12.10;96.20;;;;;;6217302;23;20095;-88
2023/03/20 14:03:37;;;;;;;0.00;0.00;;;12.10;96.30;;;;;;6217813;23;20043;-88
2023/03/20 14:06:16;;;;;;;0.00;0.00;;;12.20;97.30;;;;;;6245487;23;20012;-88
2023/03/20 14:08:48;;;;;;;0.00;0.00;;;12.30;97.40;;;;;;6218431;23;20011;-88
2023/03/20 14:11:31;;;;;;;0.00;0.00;;;12.40;96.40;;;;;;6244463;23;20255;-88
2023/03/20 14:13:59;;;;;;;0.00;0.00;;;12.30;95.30;;;;;;6244845;23;20004;-88
2023/03/20 14:16:27;;;;;;;0.00;0.00;;;12.40;97.80;;;;;;6245279;23;20007;-89